createdAt,value
2023-04-15T00:01:59.260Z,2.88
2023-04-15T00:04:30.972Z,2.90
2023-04-15T00:07:02.352Z,2.58
2023-04-15T00:09:31.148Z,2.08
2023-04-15T00:12:03.597Z,2.33
2023-04-15T00:14:30.664Z,2.13
2023-04-15T00:16:58.557Z,2.45
2023-04-15T00:19:27.504Z,2.00
2023-04-15T00:21:54.182Z,1.92
2023-04-15T00:24:22.534Z,2.22
2023-04-15T00:29:23.851Z,2.50
2023-04-15T00:31:50.561Z,2.55
2023-04-15T00:34:22.592Z,2.58
2023-04-15T00:36:51.792Z,3.28
2023-04-15T00:39:22.350Z,2.58
2023-04-15T00:41:49.165Z,1.75
2023-04-15T00:44:18.190Z,1.95
2023-04-15T00:46:50.950Z,1.80
2023-04-15T00:51:53.095Z,2.13
2023-04-15T00:54:23.529Z,1.90
2023-04-15T00:56:50.185Z,1.85
2023-04-15T00:59:17.874Z,2.60
2023-04-15T01:01:47.040Z,2.35
2023-04-15T01:04:15.577Z,1.88
2023-04-15T01:06:45.153Z,2.75
2023-04-15T01:09:11.808Z,2.47
2023-04-15T01:11:40.645Z,2.50
2023-04-15T01:14:12.560Z,2.50
2023-04-15T01:19:33.039Z,2.20
2023-04-15T01:22:00.580Z,2.10
2023-04-15T01:24:35.378Z,2.00
2023-04-15T01:27:03.807Z,2.00
2023-04-15T01:29:32.290Z,1.80
2023-04-15T01:32:06.541Z,2.03
2023-04-15T01:34:35.892Z,1.90
2023-04-15T01:37:03.680Z,2.20
2023-04-15T01:39:30.453Z,1.75
2023-04-15T01:41:59.317Z,2.00
2023-04-15T01:44:30.898Z,2.03
2023-04-15T01:46:58.766Z,2.13
2023-04-15T01:49:27.668Z,2.10
2023-04-15T01:51:54.521Z,2.00
2023-04-15T01:54:21.248Z,2.45
2023-04-15T01:56:47.837Z,1.55
2023-04-15T01:59:18.088Z,2.13
2023-04-15T02:01:45.878Z,2.00
2023-04-15T02:04:18.122Z,2.17
2023-04-15T02:06:48.003Z,2.25
2023-04-15T02:09:17.633Z,2.38
2023-04-15T02:11:55.724Z,2.35
2023-04-15T02:14:24.433Z,1.92
2023-04-15T02:16:54.873Z,2.08
2023-04-15T02:19:24.495Z,2.08
2023-04-15T02:21:53.312Z,2.25
2023-04-15T02:24:23.358Z,2.45
2023-04-15T02:26:50.794Z,2.40
2023-04-15T02:29:17.506Z,2.00
2023-04-15T02:31:44.849Z,2.20
2023-04-15T02:34:14.680Z,2.65
2023-04-15T02:36:47.839Z,2.70
2023-04-15T02:39:18.063Z,1.55
2023-04-15T02:41:51.235Z,1.83
2023-04-15T02:44:21.327Z,1.95
2023-04-15T02:46:51.861Z,2.47
2023-04-15T02:49:24.483Z,2.63
2023-04-15T02:52:16.392Z,2.00
2023-04-15T02:54:51.252Z,1.75
2023-04-15T02:57:23.014Z,1.58
2023-04-15T02:59:52.823Z,1.83
2023-04-15T03:02:21.830Z,1.60
2023-04-15T03:04:48.646Z,1.95
2023-04-15T03:07:17.911Z,1.98
2023-04-15T03:09:47.058Z,2.10
2023-04-15T03:12:19.450Z,14.02
2023-04-15T03:14:48.198Z,7.20
2023-04-15T03:17:19.491Z,7.53
2023-04-15T03:19:46.771Z,5.75
2023-04-15T03:22:13.397Z,8.63
2023-04-15T03:24:45.878Z,7.75
2023-04-15T03:30:05.745Z,3.65
2023-04-15T03:32:34.975Z,2.70
2023-04-15T03:35:13.537Z,2.65
2023-04-15T03:37:50.153Z,2.03
2023-04-15T03:40:16.781Z,1.98
2023-04-15T03:42:45.888Z,2.05
2023-04-15T03:45:42.120Z,2.45
2023-04-15T03:48:18.205Z,2.15
2023-04-15T03:50:47.795Z,2.13
2023-04-15T03:53:15.308Z,1.75
2023-04-15T03:55:42.306Z,1.73
2023-04-15T03:58:12.110Z,1.80
2023-04-15T04:00:40.713Z,1.83
2023-04-15T04:03:09.924Z,2.08
2023-04-15T04:05:40.730Z,2.08
2023-04-15T04:08:07.577Z,1.88
2023-04-15T04:10:34.374Z,1.75
2023-04-15T04:13:03.566Z,1.90
2023-04-15T04:15:34.958Z,2.00
2023-04-15T04:18:06.880Z,1.70
2023-04-15T04:20:34.870Z,2.00
2023-04-15T04:23:02.907Z,2.05
2023-04-15T04:25:29.848Z,2.28
2023-04-15T04:27:59.981Z,2.05
2023-04-15T04:30:29.624Z,1.80
2023-04-15T04:32:58.609Z,2.17
2023-04-15T04:35:25.668Z,1.77
2023-04-15T04:37:55.853Z,1.80
2023-04-15T04:43:39.961Z,3.50
2023-04-15T04:46:07.888Z,3.67
2023-04-15T04:48:36.228Z,3.65
2023-04-15T04:51:08.757Z,2.42
2023-04-15T04:53:42.902Z,1.75
2023-04-15T04:56:12.051Z,2.35
2023-04-15T04:58:39.121Z,1.92
2023-04-15T05:01:07.192Z,2.30
2023-04-15T05:03:37.985Z,2.08
2023-04-15T05:06:08.133Z,2.05
2023-04-15T05:08:39.897Z,1.98
2023-04-15T05:11:33.265Z,1.90
2023-04-15T05:14:02.601Z,3.35
2023-04-15T05:16:29.287Z,2.28
2023-04-15T05:18:58.607Z,2.00
2023-04-15T05:21:25.453Z,3.80
2023-04-15T05:23:57.086Z,5.43
2023-04-15T05:26:27.580Z,5.28
2023-04-15T05:29:00.512Z,4.57
2023-04-15T05:31:27.650Z,4.50
2023-04-15T05:33:54.499Z,2.53
2023-04-15T05:36:21.423Z,2.70
2023-04-15T05:38:54.029Z,3.50
2023-04-15T05:41:20.855Z,4.40
2023-04-15T05:43:47.464Z,5.88
2023-04-15T05:46:18.483Z,5.60
2023-04-15T05:48:47.256Z,5.55
2023-04-15T05:51:16.277Z,5.55
2023-04-15T05:53:47.876Z,5.47
2023-04-15T05:56:19.666Z,3.30
2023-04-15T05:58:46.456Z,10.43
2023-04-15T06:01:14.748Z,13.10
2023-04-15T06:03:42.042Z,8.02
2023-04-15T06:06:11.151Z,6.63
2023-04-15T06:08:39.848Z,6.20
2023-04-15T06:11:06.641Z,4.75
2023-04-15T06:13:37.747Z,3.92
2023-04-15T06:16:04.733Z,4.57
2023-04-15T06:18:34.003Z,4.07
2023-04-15T06:21:00.874Z,3.80
2023-04-15T06:23:28.048Z,3.25
2023-04-15T06:25:56.068Z,3.33
2023-04-15T06:28:25.344Z,3.50
2023-04-15T06:30:55.014Z,3.10
2023-04-15T06:33:23.665Z,3.15
2023-04-15T06:35:50.544Z,3.55
2023-04-15T06:38:17.169Z,3.25
2023-04-15T06:40:43.987Z,3.83
2023-04-15T06:43:12.151Z,3.10
2023-04-15T06:45:44.092Z,3.15
2023-04-15T06:48:11.032Z,3.45
2023-04-15T06:50:39.960Z,3.47
2023-04-15T06:53:08.454Z,3.33
2023-04-15T06:55:35.276Z,2.92
2023-04-15T06:58:03.232Z,3.47
2023-04-15T07:00:30.016Z,3.58
2023-04-15T07:03:00.199Z,3.28
2023-04-15T07:05:28.259Z,2.55
2023-04-15T07:07:57.583Z,2.50
2023-04-15T07:10:25.752Z,3.60
2023-04-15T07:12:54.952Z,2.90
2023-04-15T07:15:22.719Z,2.13
2023-04-15T07:17:55.538Z,2.50
2023-04-15T07:20:26.582Z,2.17
2023-04-15T07:22:55.609Z,2.20
2023-04-15T07:25:22.473Z,2.05
2023-04-15T07:27:51.850Z,2.58
2023-04-15T07:33:17.154Z,2.53
2023-04-15T07:35:44.634Z,2.38
2023-04-15T07:38:16.225Z,2.30
2023-04-15T07:40:49.112Z,2.33
2023-04-15T07:43:17.268Z,2.25
2023-04-15T07:45:48.298Z,2.08
2023-04-15T07:48:16.105Z,2.30
2023-04-15T07:51:10.318Z,2.55
2023-04-15T07:53:37.421Z,2.28
2023-04-15T07:56:08.257Z,2.22
2023-04-15T07:58:34.957Z,2.33
2023-04-15T08:01:01.669Z,2.58
2023-04-15T08:03:33.768Z,2.63
2023-04-15T08:06:01.025Z,2.22
2023-04-15T08:08:31.378Z,2.28
2023-04-15T08:11:02.029Z,2.00
2023-04-15T08:13:28.861Z,2.42
2023-04-15T08:16:18.564Z,2.63
2023-04-15T08:18:50.101Z,2.10
2023-04-15T08:21:18.588Z,2.40
2023-04-15T08:23:51.231Z,1.92
2023-04-15T08:28:53.260Z,2.90
2023-04-15T08:31:22.873Z,3.00
2023-04-15T08:33:54.169Z,2.45
2023-04-15T08:36:20.906Z,2.65
2023-04-15T08:39:13.482Z,3.15
2023-04-15T08:41:55.735Z,2.47
2023-04-15T08:44:25.102Z,2.95
2023-04-15T08:47:03.016Z,2.50
2023-04-15T08:49:31.216Z,2.65
2023-04-15T08:52:02.075Z,2.85
2023-04-15T08:54:30.385Z,3.33
2023-04-15T08:56:58.868Z,3.65
2023-04-15T08:59:30.896Z,3.78
2023-04-15T09:01:58.095Z,3.25
2023-04-15T09:04:30.833Z,2.45
2023-04-15T09:06:57.756Z,3.17
2023-04-15T09:09:24.536Z,3.03
2023-04-15T09:11:51.206Z,3.03
2023-04-15T09:14:19.806Z,2.97
2023-04-15T09:17:03.758Z,2.88
2023-04-15T09:19:32.724Z,3.60
2023-04-15T09:22:00.503Z,3.63
2023-04-15T09:24:40.141Z,2.55
2023-04-15T09:27:09.571Z,2.70
2023-04-15T09:29:38.665Z,2.55
2023-04-15T09:32:23.201Z,2.38
2023-04-15T09:34:49.998Z,2.33
2023-04-15T09:37:31.571Z,3.00
2023-04-15T09:39:59.948Z,3.00
2023-04-15T09:42:29.205Z,2.83
2023-04-15T09:45:08.428Z,3.25
2023-04-15T09:47:36.654Z,2.75
2023-04-15T09:50:03.748Z,3.40
2023-04-15T09:52:33.023Z,2.67
2023-04-15T09:55:06.159Z,2.40
2023-04-15T09:57:37.534Z,2.50
2023-04-15T10:00:06.018Z,2.67
2023-04-15T10:02:37.062Z,2.22
2023-04-15T10:05:04.059Z,2.35
2023-04-15T10:07:37.387Z,2.10
2023-04-15T10:10:07.452Z,1.90
2023-04-15T10:12:36.841Z,2.40
2023-04-15T10:15:06.409Z,2.40
2023-04-15T10:17:36.523Z,2.13
2023-04-15T10:20:08.070Z,2.58
2023-04-15T10:22:35.597Z,2.30
2023-04-15T10:25:05.742Z,2.33
2023-04-15T10:27:36.638Z,2.22
2023-04-15T10:30:10.777Z,2.72
2023-04-15T10:32:38.365Z,2.65
2023-04-15T10:35:06.431Z,2.10
2023-04-15T10:37:39.657Z,2.70
2023-04-15T10:40:31.936Z,2.45
2023-04-15T10:45:56.852Z,2.85
2023-04-15T10:48:27.070Z,2.67
2023-04-15T10:50:59.983Z,2.75
2023-04-15T10:56:41.315Z,2.78
2023-04-15T10:59:08.624Z,3.25
2023-04-15T11:01:59.593Z,3.42
2023-04-15T11:05:03.566Z,3.03
2023-04-15T11:07:58.485Z,2.92
2023-04-15T11:10:25.398Z,2.60
2023-04-15T11:13:01.488Z,3.25
2023-04-15T11:18:29.985Z,2.22
2023-04-15T11:21:05.959Z,2.40
2023-04-15T11:23:43.382Z,2.25
2023-04-15T11:26:14.204Z,3.00
2023-04-15T11:28:44.039Z,3.30
2023-04-15T11:31:12.195Z,3.10
2023-04-15T11:34:20.252Z,3.20
2023-04-15T11:36:50.042Z,3.42
2023-04-15T11:39:16.794Z,3.10
2023-04-15T11:41:43.622Z,3.67
2023-04-15T11:44:17.432Z,3.55
2023-04-15T11:46:46.674Z,3.30
2023-04-15T11:49:30.604Z,2.42
2023-04-15T11:51:57.375Z,2.38
2023-04-15T11:54:24.616Z,3.00
2023-04-15T11:56:56.712Z,2.83
2023-04-15T11:59:26.317Z,2.83
2023-04-15T12:01:55.412Z,2.90
2023-04-15T12:04:27.759Z,3.05
2023-04-15T12:07:03.788Z,2.88
2023-04-15T12:09:42.253Z,2.88
2023-04-15T12:12:11.406Z,2.75
2023-04-15T12:14:39.548Z,2.42
2023-04-15T12:17:06.428Z,2.72
2023-04-15T12:19:37.580Z,2.83
2023-04-15T12:22:16.607Z,2.47
2023-04-15T12:24:47.194Z,2.80
2023-04-15T12:27:16.871Z,2.90
2023-04-15T12:29:44.877Z,1.92
2023-04-15T12:32:21.210Z,1.77
2023-04-15T12:34:52.529Z,2.40
2023-04-15T12:37:22.852Z,2.22
2023-04-15T12:39:53.700Z,1.83
2023-04-15T12:42:24.463Z,1.65
2023-04-15T12:44:51.588Z,1.92
2023-04-15T12:47:19.197Z,1.90
2023-04-15T12:49:49.533Z,2.05
2023-04-15T12:55:25.112Z,1.60
2023-04-15T12:57:53.639Z,1.38
2023-04-15T13:00:20.525Z,1.20
2023-04-15T13:02:51.853Z,1.23
2023-04-15T13:05:25.861Z,1.30
2023-04-15T13:07:52.465Z,1.20
2023-04-15T13:10:25.333Z,1.70
2023-04-15T13:12:55.893Z,1.35
2023-04-15T13:15:47.968Z,1.90
2023-04-15T13:18:16.300Z,1.42
2023-04-15T13:20:42.929Z,1.50
2023-04-15T13:23:09.865Z,1.70
2023-04-15T13:25:40.623Z,1.85
2023-04-15T13:28:07.221Z,1.85
2023-04-15T13:30:40.630Z,1.80
2023-04-15T13:33:37.002Z,2.22
2023-04-15T13:36:14.758Z,1.70
2023-04-15T13:38:41.375Z,2.35
2023-04-15T13:41:11.160Z,2.55
2023-04-15T13:44:05.159Z,2.30
2023-04-15T13:46:32.478Z,2.20
2023-04-15T13:49:00.217Z,3.22
2023-04-15T13:51:27.435Z,3.25
2023-04-15T13:54:00.291Z,3.10
2023-04-15T13:56:27.071Z,2.83
2023-04-15T13:58:58.208Z,2.90
2023-04-15T14:01:27.832Z,2.65
2023-04-15T14:03:58.966Z,2.75
2023-04-15T14:06:30.892Z,3.50
2023-04-15T14:09:01.552Z,3.25
2023-04-15T14:11:31.110Z,2.40
2023-04-15T14:14:00.884Z,2.03
2023-04-15T14:16:33.792Z,2.30
2023-04-15T14:19:02.139Z,1.83
2023-04-15T14:21:31.385Z,2.00
2023-04-15T14:23:58.290Z,2.13
2023-04-15T14:26:26.350Z,2.80
2023-04-15T14:28:53.373Z,3.10
2023-04-15T14:31:22.746Z,2.55
2023-04-15T14:33:54.158Z,2.20
2023-04-15T14:36:23.366Z,1.70
2023-04-15T14:39:17.333Z,1.73
2023-04-15T14:41:46.833Z,2.45
2023-04-15T14:44:13.470Z,2.10
2023-04-15T14:46:40.362Z,4.60
2023-04-15T14:49:07.516Z,3.50
2023-04-15T14:51:34.301Z,2.00
2023-04-15T14:54:04.036Z,2.45
2023-04-15T14:56:31.417Z,2.63
2023-04-15T14:59:04.465Z,4.00
2023-04-15T15:01:34.512Z,2.45
2023-04-15T15:04:01.430Z,2.28
2023-04-15T15:06:28.371Z,2.25
2023-04-15T15:08:55.208Z,1.92
2023-04-15T15:11:23.542Z,1.58
2023-04-15T15:13:53.975Z,1.77
2023-04-15T15:16:24.162Z,2.53
2023-04-15T15:18:50.856Z,3.25
2023-04-15T15:21:17.972Z,3.17
2023-04-15T15:23:45.212Z,1.10
2023-04-15T15:26:41.442Z,1.20
2023-04-15T15:29:11.059Z,1.20
2023-04-15T15:31:40.239Z,0.93
2023-04-15T15:34:12.251Z,1.15
2023-04-15T15:36:43.479Z,0.80
2023-04-15T15:39:11.952Z,1.27
2023-04-15T15:41:42.028Z,1.05
2023-04-15T15:44:39.852Z,0.82
2023-04-15T15:47:10.055Z,1.27
2023-04-15T15:49:36.915Z,1.10
2023-04-15T15:52:13.875Z,1.00
2023-04-15T15:54:40.717Z,0.93
2023-04-15T15:57:07.745Z,0.93
2023-04-15T15:59:40.447Z,0.90
2023-04-15T16:02:13.652Z,1.15
2023-04-15T16:04:43.130Z,1.10
2023-04-15T16:07:14.679Z,1.38
2023-04-15T16:09:42.066Z,1.40
2023-04-15T16:12:08.918Z,1.30
2023-04-15T16:14:35.730Z,1.08
2023-04-15T16:17:02.594Z,1.20
2023-04-15T16:19:29.649Z,1.40
2023-04-15T16:21:56.617Z,2.05
2023-04-15T16:24:23.372Z,1.55
2023-04-15T16:26:50.543Z,1.83
2023-04-15T16:29:17.122Z,1.27
2023-04-15T16:31:46.964Z,1.60
2023-04-15T16:34:16.756Z,1.08
2023-04-15T16:36:44.645Z,1.38
2023-04-15T16:39:12.486Z,1.40
2023-04-15T16:41:42.165Z,1.63
2023-04-15T16:44:34.629Z,1.40
2023-04-15T16:47:03.851Z,1.75
2023-04-15T16:49:34.765Z,1.58
2023-04-15T16:52:01.817Z,1.50
2023-04-15T16:54:32.762Z,1.45
2023-04-15T16:57:01.941Z,1.63
2023-04-15T16:59:30.866Z,1.30
2023-04-15T17:01:58.568Z,1.80
2023-04-15T17:04:26.601Z,1.50
2023-04-15T17:06:53.290Z,1.60
2023-04-15T17:09:22.661Z,1.90
2023-04-15T17:11:55.265Z,2.13
2023-04-15T17:16:55.118Z,1.80
2023-04-15T17:19:24.056Z,1.77
2023-04-15T17:21:52.415Z,2.33
2023-04-15T17:24:20.532Z,2.20
2023-04-15T17:26:47.172Z,1.98
2023-04-15T17:29:20.042Z,2.10
2023-04-15T17:31:48.118Z,1.95
2023-04-15T17:34:16.603Z,1.80
2023-04-15T17:36:45.531Z,1.90
2023-04-15T17:42:10.524Z,2.53
2023-04-15T17:44:37.149Z,2.45
2023-04-15T17:47:07.225Z,2.55
2023-04-15T17:49:36.961Z,2.42
2023-04-15T17:52:03.882Z,2.60
2023-04-15T17:54:30.509Z,2.97
2023-04-15T17:56:58.524Z,2.22
2023-04-15T17:59:25.574Z,2.75
2023-04-15T18:01:57.432Z,2.65
2023-04-15T18:04:26.499Z,3.17
2023-04-15T18:06:57.318Z,2.47
2023-04-15T18:09:49.866Z,2.58
2023-04-15T18:12:23.498Z,2.72
2023-04-15T18:14:53.685Z,3.35
2023-04-15T18:17:21.269Z,2.50
2023-04-15T18:19:51.777Z,2.85
2023-04-15T18:22:21.897Z,2.78
2023-04-15T18:24:53.895Z,2.45
2023-04-15T18:27:23.599Z,2.92
2023-04-15T18:29:55.542Z,2.90
2023-04-15T18:32:32.012Z,3.05
2023-04-15T18:35:09.354Z,3.10
2023-04-15T18:37:36.133Z,3.35
2023-04-15T18:40:06.547Z,3.53
2023-04-15T18:42:35.860Z,4.00
2023-04-15T18:45:02.633Z,3.05
2023-04-15T18:47:31.831Z,2.58
2023-04-15T18:50:03.454Z,3.00
2023-04-15T18:52:35.620Z,3.00
2023-04-15T18:55:51.939Z,3.00
2023-04-15T18:58:18.804Z,2.83
2023-04-15T19:00:50.197Z,3.00
2023-04-15T19:03:17.091Z,3.28
2023-04-15T19:05:45.936Z,2.97
2023-04-15T19:08:12.688Z,2.70
2023-04-15T19:10:42.649Z,2.60
2023-04-15T19:13:12.249Z,2.65
2023-04-15T19:15:40.747Z,4.40
2023-04-15T19:18:09.895Z,5.72
2023-04-15T19:20:39.993Z,11.43
2023-04-15T19:23:09.054Z,6.60
2023-04-15T19:25:38.818Z,10.40
2023-04-15T19:28:10.789Z,3.60
2023-04-15T19:30:37.432Z,2.83
2023-04-15T19:33:04.235Z,3.28
2023-04-15T19:35:30.825Z,3.22
2023-04-15T19:37:59.564Z,19.15
2023-04-15T19:40:29.319Z,19.27
2023-04-15T19:42:57.777Z,12.57
2023-04-15T19:45:24.696Z,12.05
2023-04-15T19:47:54.590Z,10.23
2023-04-15T19:50:26.962Z,8.32
2023-04-15T19:52:57.378Z,6.05
2023-04-15T19:55:29.333Z,6.70
2023-04-15T19:57:56.227Z,10.27
2023-04-15T20:00:29.718Z,15.30
2023-04-15T20:02:57.501Z,15.77
2023-04-15T20:05:24.306Z,16.98
2023-04-15T20:08:00.406Z,13.80
2023-04-15T20:10:27.212Z,13.32
2023-04-15T20:12:54.992Z,15.23
2023-04-15T20:15:22.892Z,15.65
2023-04-15T20:17:55.963Z,11.63
2023-04-15T20:20:22.985Z,13.82
2023-04-15T20:22:52.269Z,9.48
2023-04-15T20:25:19.044Z,6.25
2023-04-15T20:27:45.720Z,5.63
2023-04-15T20:30:16.316Z,7.78
2023-04-15T20:32:43.473Z,8.30
2023-04-15T20:35:13.874Z,7.88
2023-04-15T20:37:46.145Z,10.13
2023-04-15T20:40:13.675Z,8.18
2023-04-15T20:42:43.638Z,8.55
2023-04-15T20:45:15.453Z,6.70
2023-04-15T20:47:42.235Z,7.23
2023-04-15T20:50:09.710Z,6.10
2023-04-15T20:52:36.307Z,6.38
2023-04-15T20:55:05.397Z,5.43
2023-04-15T20:57:33.468Z,6.10
2023-04-15T21:00:02.092Z,5.35
2023-04-15T21:02:32.051Z,5.65
2023-04-15T21:10:50.203Z,5.03
2023-04-15T21:13:16.959Z,5.68
2023-04-15T21:15:44.794Z,5.20
2023-04-15T21:18:12.641Z,6.50
2023-04-15T21:20:42.968Z,7.05
2023-04-15T21:23:12.498Z,6.32
2023-04-15T21:25:39.888Z,6.43
2023-04-15T21:28:10.510Z,6.10
2023-04-15T21:30:37.381Z,5.63
2023-04-15T21:33:06.338Z,5.95
2023-04-15T21:35:33.108Z,6.75
2023-04-15T21:38:08.770Z,6.43
2023-04-15T21:40:39.615Z,6.63
2023-04-15T21:43:07.321Z,6.10
2023-04-15T21:45:34.951Z,5.90
2023-04-15T21:48:08.201Z,6.35
2023-04-15T21:50:36.373Z,6.38
2023-04-15T21:53:04.010Z,7.03
2023-04-15T21:55:30.611Z,6.70
2023-04-15T21:57:58.533Z,6.50
2023-04-15T22:00:56.873Z,5.90
2023-04-15T22:03:28.554Z,6.28
2023-04-15T22:05:55.590Z,5.90
2023-04-15T22:08:23.620Z,6.40
2023-04-15T22:10:52.026Z,6.63
2023-04-15T22:13:20.125Z,6.75
2023-04-15T22:15:47.502Z,6.43
2023-04-15T22:18:17.131Z,6.63
2023-04-15T22:20:47.169Z,6.53
2023-04-15T22:23:19.578Z,6.47
2023-04-15T22:25:49.465Z,5.68
2023-04-15T22:28:19.353Z,6.50
2023-04-15T22:30:46.494Z,6.20
2023-04-15T22:33:23.000Z,6.35
2023-04-15T22:35:49.837Z,5.80
2023-04-15T22:38:30.128Z,6.47
2023-04-15T22:40:58.037Z,6.38
2023-04-15T22:43:50.341Z,6.55
2023-04-15T22:46:43.750Z,6.13
2023-04-15T22:49:10.553Z,6.25
2023-04-15T22:51:39.537Z,6.35
2023-04-15T22:54:07.692Z,6.55
2023-04-15T22:56:38.048Z,6.68
2023-04-15T22:59:05.766Z,6.75
2023-04-15T23:01:34.690Z,6.80
2023-04-15T23:04:08.910Z,6.72
2023-04-15T23:06:37.384Z,7.00
2023-04-15T23:09:05.834Z,5.88
2023-04-15T23:11:32.538Z,6.55
2023-04-15T23:14:02.277Z,6.03
2023-04-15T23:16:54.514Z,6.05
2023-04-15T23:19:21.728Z,8.07
2023-04-15T23:21:50.593Z,6.53
2023-04-15T23:24:21.532Z,6.85
2023-04-15T23:26:52.215Z,6.53
2023-04-15T23:29:21.809Z,6.07
2023-04-15T23:31:49.184Z,6.53
2023-04-15T23:34:21.643Z,6.25
2023-04-15T23:36:53.934Z,7.15
2023-04-15T23:40:15.686Z,6.40
2023-04-15T23:43:14.133Z,6.38
2023-04-15T23:45:43.882Z,7.03
2023-04-15T23:48:12.096Z,6.22
2023-04-15T23:50:38.895Z,6.63
2023-04-15T23:53:06.177Z,6.78
2023-04-15T23:55:34.676Z,6.55
2023-04-15T23:58:27.011Z,7.07
